createdAt,value
2017-12-01T00:01:50.925Z,30.30
2017-12-01T00:04:19.283Z,31.15
2017-12-01T00:06:48.131Z,32.70
2017-12-01T00:09:16.459Z,31.42
2017-12-01T00:11:44.773Z,31.73
2017-12-01T00:14:13.880Z,32.67
2017-12-01T00:16:43.021Z,30.95
2017-12-01T00:19:11.340Z,30.92
2017-12-01T00:21:39.706Z,32.53
2017-12-01T00:24:08.081Z,31.58
2017-12-01T00:26:36.365Z,31.85
2017-12-01T00:29:05.069Z,32.15
2017-12-01T00:31:34.144Z,33.30
2017-12-01T00:34:02.481Z,31.92
2017-12-01T00:36:30.823Z,31.70
2017-12-01T00:38:59.914Z,30.33
2017-12-01T00:41:28.271Z,32.25
2017-12-01T00:43:56.617Z,32.55
2017-12-01T00:46:24.952Z,32.30
2017-12-01T00:48:54.033Z,33.13
2017-12-01T00:51:22.584Z,32.47
2017-12-01T00:53:50.906Z,32.45
2017-12-01T00:56:20.003Z,30.33
2017-12-01T00:58:49.168Z,31.67
2017-12-01T01:01:17.531Z,33.22
2017-12-01T01:03:45.864Z,32.28
2017-12-01T01:06:15.001Z,32.03
2017-12-01T01:08:43.347Z,32.40
2017-12-01T01:11:11.725Z,31.27
2017-12-01T01:13:40.445Z,33.50
2017-12-01T01:16:08.780Z,32.75
2017-12-01T01:18:37.870Z,32.72
2017-12-01T01:21:06.996Z,33.28
2017-12-01T01:23:35.304Z,33.88
2017-12-01T01:26:03.627Z,33.53
2017-12-01T01:28:32.014Z,30.40
2017-12-01T01:31:00.387Z,31.10
2017-12-01T01:33:28.721Z,33.50
2017-12-01T01:35:57.420Z,29.52
2017-12-01T01:38:25.735Z,32.20
2017-12-01T01:40:54.067Z,30.75
2017-12-01T01:43:22.757Z,29.75
2017-12-01T01:45:51.140Z,28.98
2017-12-01T01:48:19.489Z,30.52
2017-12-01T01:50:47.816Z,30.40
2017-12-01T01:53:16.161Z,31.37
2017-12-01T01:55:44.566Z,30.15
2017-12-01T01:58:13.105Z,30.62
2017-12-01T02:00:41.452Z,31.20
2017-12-01T02:03:10.541Z,30.75
2017-12-01T02:05:38.891Z,29.87
2017-12-01T02:08:07.233Z,29.17
2017-12-01T02:10:35.595Z,27.60
2017-12-01T02:13:04.726Z,29.00
2017-12-01T02:15:33.028Z,27.80
2017-12-01T02:18:01.386Z,29.05
2017-12-01T02:20:29.964Z,27.58
2017-12-01T02:22:58.268Z,29.23
2017-12-01T02:25:26.618Z,25.80
2017-12-01T02:27:54.952Z,27.40
2017-12-01T02:30:23.300Z,25.62
2017-12-01T02:32:51.659Z,26.35
2017-12-01T02:35:20.025Z,25.62
2017-12-01T02:37:48.362Z,26.25
2017-12-01T02:40:16.814Z,27.83
2017-12-01T02:42:45.980Z,28.10
2017-12-01T02:45:14.760Z,26.90
2017-12-01T02:47:43.081Z,27.95
2017-12-01T02:50:11.422Z,27.92
2017-12-01T02:52:39.793Z,27.52
2017-12-01T02:55:08.192Z,25.50
2017-12-01T02:57:36.519Z,25.92
2017-12-01T03:00:04.834Z,25.23
2017-12-01T03:02:33.145Z,24.83
2017-12-01T03:05:01.624Z,23.60
2017-12-01T03:07:30.043Z,25.77
2017-12-01T03:09:58.333Z,25.42
2017-12-01T03:12:27.456Z,25.50
2017-12-01T03:14:56.552Z,26.17
2017-12-01T03:17:24.884Z,24.50
2017-12-01T03:19:53.217Z,24.70
2017-12-01T03:22:21.536Z,24.58
2017-12-01T03:24:49.856Z,24.55
2017-12-01T03:27:18.416Z,23.30
2017-12-01T03:29:46.925Z,23.25
2017-12-01T03:32:15.255Z,25.75
2017-12-01T03:34:43.624Z,23.92
2017-12-01T03:37:12.094Z,23.33
2017-12-01T03:39:40.292Z,24.95
2017-12-01T03:42:08.634Z,24.92
2017-12-01T03:44:36.979Z,24.95
2017-12-01T03:47:05.290Z,25.70
2017-12-01T03:49:33.819Z,25.58
2017-12-01T03:52:02.196Z,25.27
2017-12-01T03:54:30.552Z,26.52
2017-12-01T03:56:58.907Z,23.50
2017-12-01T03:59:27.219Z,23.70
2017-12-01T04:01:55.534Z,24.70
2017-12-01T04:04:23.886Z,24.55
2017-12-01T04:06:52.236Z,22.35
2017-12-01T04:09:20.563Z,25.23
2017-12-01T04:11:49.006Z,24.90
2017-12-01T04:14:17.351Z,24.55
2017-12-01T04:16:45.672Z,23.20
2017-12-01T04:19:14.036Z,22.35
2017-12-01T04:21:42.360Z,21.58
2017-12-01T04:24:10.676Z,21.95
2017-12-01T04:26:39.043Z,23.35
2017-12-01T04:29:07.345Z,21.20
2017-12-01T04:31:35.695Z,22.85
2017-12-01T04:34:04.527Z,23.55
2017-12-01T04:36:32.852Z,23.62
2017-12-01T04:39:01.171Z,20.37
2017-12-01T04:41:29.519Z,21.80
2017-12-01T04:43:57.877Z,22.00
2017-12-01T04:46:26.972Z,22.98
2017-12-01T04:48:56.085Z,23.35
2017-12-01T04:51:25.200Z,20.73
2017-12-01T04:53:53.553Z,20.83
2017-12-01T04:56:21.997Z,21.33
2017-12-01T04:58:50.344Z,23.45
2017-12-01T05:01:18.701Z,22.00
2017-12-01T05:03:47.067Z,21.08
2017-12-01T05:06:15.374Z,21.08
2017-12-01T05:08:43.845Z,20.55
2017-12-01T05:11:12.194Z,20.35
2017-12-01T05:13:40.544Z,20.52
2017-12-01T05:16:08.870Z,19.33
2017-12-01T05:18:37.268Z,20.12
2017-12-01T05:21:05.575Z,20.48
2017-12-01T05:23:33.882Z,19.25
2017-12-01T05:26:02.286Z,19.25
2017-12-01T05:28:30.642Z,20.05
2017-12-01T05:30:58.944Z,18.25
2017-12-01T05:33:27.317Z,18.80
2017-12-01T05:35:55.649Z,19.10
2017-12-01T05:38:23.995Z,19.23
2017-12-01T05:40:52.473Z,20.15
2017-12-01T05:43:20.777Z,19.20
2017-12-01T05:45:49.109Z,19.15
2017-12-01T05:48:17.475Z,20.35
2017-12-01T05:50:46.566Z,19.05
2017-12-01T05:53:15.673Z,20.12
2017-12-01T05:55:44.790Z,19.05
2017-12-01T05:58:13.110Z,19.75
2017-12-01T06:00:41.406Z,20.98
2017-12-01T06:03:09.821Z,21.25
2017-12-01T06:05:38.130Z,19.77
2017-12-01T06:08:06.484Z,21.58
2017-12-01T06:10:34.847Z,23.33
2017-12-01T06:13:03.949Z,21.15
2017-12-01T06:15:32.296Z,20.95
2017-12-01T06:18:00.681Z,22.17
2017-12-01T06:20:29.027Z,21.12
2017-12-01T06:22:57.324Z,21.58
2017-12-01T06:25:25.839Z,21.40
2017-12-01T06:27:54.154Z,22.25
2017-12-01T06:30:22.539Z,20.67
2017-12-01T06:32:50.872Z,20.42
2017-12-01T06:35:19.234Z,20.73
2017-12-01T06:37:47.580Z,19.60
2017-12-01T06:40:15.949Z,19.67
2017-12-01T06:42:44.329Z,19.33
2017-12-01T06:45:12.823Z,19.80
2017-12-01T06:47:41.330Z,19.27
2017-12-01T06:50:09.689Z,20.40
2017-12-01T06:52:38.050Z,20.70
2017-12-01T06:55:06.391Z,20.05
2017-12-01T06:57:34.703Z,20.00
2017-12-01T07:00:03.047Z,19.92
2017-12-01T07:02:31.379Z,20.92
2017-12-01T07:04:59.702Z,20.62
2017-12-01T07:07:28.023Z,20.00
2017-12-01T07:09:56.846Z,20.52
2017-12-01T07:12:25.192Z,20.12
2017-12-01T07:14:53.600Z,19.37
2017-12-01T07:17:21.985Z,18.58
2017-12-01T07:19:50.303Z,19.45
2017-12-01T07:22:18.677Z,18.25
2017-12-01T07:24:47.029Z,19.05
2017-12-01T07:27:15.341Z,19.65
2017-12-01T07:29:43.666Z,20.77
2017-12-01T07:32:12.276Z,19.75
2017-12-01T07:34:41.346Z,21.15
2017-12-01T07:37:09.725Z,19.50
2017-12-01T07:39:38.104Z,20.92
2017-12-01T07:42:06.434Z,20.77
2017-12-01T07:47:43.151Z,18.75
2017-12-01T07:50:11.580Z,20.17
2017-12-01T07:52:40.660Z,19.60
2017-12-01T07:55:09.008Z,19.60
2017-12-01T07:57:37.392Z,19.87
2017-12-01T08:00:06.491Z,19.25
2017-12-01T08:02:34.823Z,20.65
2017-12-01T08:05:03.166Z,19.85
2017-12-01T08:07:32.885Z,19.27
2017-12-01T08:10:01.230Z,19.40
2017-12-01T08:12:30.144Z,20.30
2017-12-01T08:14:58.500Z,18.73
2017-12-01T08:17:31.033Z,20.35
2017-12-01T08:20:00.127Z,20.45
2017-12-01T08:22:59.245Z,20.95
2017-12-01T08:25:32.111Z,21.80
2017-12-01T08:28:01.728Z,21.15
2017-12-01T08:30:30.072Z,22.15
2017-12-01T08:32:58.472Z,21.85
2017-12-01T08:35:26.783Z,20.85
2017-12-01T08:37:55.175Z,19.10
2017-12-01T08:40:23.587Z,19.90
2017-12-01T08:42:52.072Z,21.15
2017-12-01T08:45:20.489Z,20.75
2017-12-01T08:47:48.812Z,18.73
2017-12-01T08:50:17.632Z,19.55
2017-12-01T08:52:45.991Z,19.75
2017-12-01T08:55:14.339Z,20.45
2017-12-01T08:57:42.676Z,19.02
2017-12-01T09:00:11.778Z,17.80
2017-12-01T09:02:40.120Z,19.08
2017-12-01T09:05:08.472Z,20.05
2017-12-01T09:07:36.903Z,20.45
2017-12-01T09:10:06.097Z,18.75
2017-12-01T09:12:34.817Z,18.73
2017-12-01T09:15:03.136Z,18.95
2017-12-01T09:17:31.449Z,19.45
2017-12-01T09:20:00.548Z,19.62
2017-12-01T09:22:29.621Z,18.60
2017-12-01T09:24:57.925Z,20.42
2017-12-01T09:27:27.053Z,20.33
2017-12-01T09:29:55.415Z,19.10
2017-12-01T09:32:23.759Z,17.40
2017-12-01T09:34:52.306Z,17.93
2017-12-01T09:37:20.712Z,18.50
2017-12-01T09:39:49.006Z,18.90
2017-12-01T09:42:18.137Z,19.17
2017-12-01T09:44:46.510Z,19.97
2017-12-01T09:47:14.828Z,19.43
2017-12-01T09:49:43.221Z,20.50
2017-12-01T09:52:11.564Z,19.40
2017-12-01T09:54:39.894Z,19.37
2017-12-01T09:57:08.316Z,19.00
2017-12-01T09:59:36.632Z,19.17
2017-12-01T10:02:04.981Z,18.77
2017-12-01T10:04:33.301Z,18.53
2017-12-01T10:07:01.636Z,18.33
2017-12-01T10:09:29.945Z,19.60
2017-12-01T10:11:58.291Z,18.20
2017-12-01T10:14:26.592Z,19.37
2017-12-01T10:16:54.942Z,22.00
2017-12-01T10:19:23.461Z,19.87
2017-12-01T10:21:51.798Z,17.90
2017-12-01T10:24:20.132Z,18.60
2017-12-01T10:26:48.494Z,19.02
2017-12-01T10:29:16.834Z,17.83
2017-12-01T10:31:45.139Z,20.50
2017-12-01T10:34:13.505Z,19.70
2017-12-01T10:36:41.825Z,19.80
2017-12-01T10:39:10.335Z,19.50
2017-12-01T10:41:38.929Z,19.90
2017-12-01T10:44:07.248Z,17.43
2017-12-01T10:46:35.556Z,20.20
2017-12-01T10:49:04.129Z,18.10
2017-12-01T10:51:32.436Z,19.83
2017-12-01T10:54:00.756Z,19.80
2017-12-01T10:56:29.138Z,19.57
2017-12-01T10:58:57.509Z,19.00
2017-12-01T11:01:25.890Z,20.43
2017-12-01T11:03:54.532Z,18.47
2017-12-01T11:06:22.880Z,19.00
2017-12-01T11:08:51.205Z,17.73
2017-12-01T11:11:19.570Z,19.40
2017-12-01T11:13:48.678Z,19.87
2017-12-01T11:16:17.740Z,18.73
2017-12-01T11:18:46.115Z,19.13
2017-12-01T11:21:14.455Z,19.37
2017-12-01T11:23:42.810Z,19.67
2017-12-01T11:26:11.221Z,20.43
2017-12-01T11:28:39.557Z,19.40
2017-12-01T11:31:08.646Z,19.87
2017-12-01T11:33:37.810Z,19.97
2017-12-01T11:36:06.138Z,20.20
2017-12-01T11:38:34.453Z,19.37
2017-12-01T11:41:03.601Z,20.00
2017-12-01T11:43:32.688Z,23.25
2017-12-01T11:46:01.797Z,20.37
2017-12-01T11:48:30.992Z,21.00
2017-12-01T11:50:59.506Z,21.85
2017-12-01T11:53:27.930Z,20.67
2017-12-01T11:55:56.298Z,21.50
2017-12-01T11:58:25.418Z,22.30
2017-12-01T12:00:55.307Z,20.70
2017-12-01T12:03:24.561Z,22.95
2017-12-01T12:05:52.911Z,21.93
2017-12-01T12:08:22.020Z,21.30
2017-12-01T12:10:50.698Z,21.65
2017-12-01T12:13:19.831Z,22.17
2017-12-01T12:15:48.161Z,22.50
2017-12-01T12:18:16.519Z,23.53
2017-12-01T12:20:44.868Z,22.50
2017-12-01T12:23:13.479Z,22.87
2017-12-01T12:25:41.791Z,22.43
2017-12-01T12:28:10.910Z,23.03
2017-12-01T12:30:39.258Z,22.90
2017-12-01T12:33:08.177Z,25.33
2017-12-01T12:35:36.563Z,24.12
2017-12-01T12:38:04.879Z,23.92
2017-12-01T12:40:33.265Z,24.48
2017-12-01T12:43:01.614Z,22.83
2017-12-01T12:45:29.973Z,23.95
2017-12-01T12:47:58.321Z,23.00
2017-12-01T12:50:27.416Z,23.42
2017-12-01T12:52:55.779Z,23.10
2017-12-01T12:55:24.303Z,24.63
2017-12-01T12:57:53.397Z,24.00
2017-12-01T13:00:21.715Z,26.00
2017-12-01T13:02:50.100Z,22.52
2017-12-01T13:05:18.460Z,24.73
2017-12-01T13:07:46.803Z,24.67
2017-12-01T13:10:15.957Z,22.30
2017-12-01T13:12:44.281Z,22.65
2017-12-01T13:15:12.608Z,22.87
2017-12-01T13:17:41.784Z,23.45
2017-12-01T13:20:10.136Z,22.75
2017-12-01T13:22:39.434Z,23.45
2017-12-01T13:25:07.821Z,24.40
2017-12-01T13:27:36.323Z,23.15
2017-12-01T13:30:04.683Z,23.33
2017-12-01T13:32:33.783Z,23.05
2017-12-01T13:35:02.177Z,24.83
2017-12-01T13:37:30.522Z,23.45
2017-12-01T13:39:59.009Z,22.50
2017-12-01T13:42:27.353Z,23.20
2017-12-01T13:44:55.764Z,23.45
2017-12-01T13:47:24.162Z,23.17
2017-12-01T13:49:52.536Z,23.23
2017-12-01T13:52:20.896Z,22.27
2017-12-01T13:54:49.279Z,23.43
2017-12-01T13:57:17.657Z,24.00
2017-12-01T13:59:46.766Z,21.23
2017-12-01T14:02:16.009Z,23.75
2017-12-01T14:04:45.146Z,24.95
2017-12-01T14:07:14.284Z,23.70
2017-12-01T14:09:42.668Z,23.10
2017-12-01T14:12:11.030Z,23.42
2017-12-01T14:14:39.429Z,21.77
2017-12-01T14:17:07.871Z,23.30
2017-12-01T14:19:36.198Z,21.80
2017-12-01T14:22:04.531Z,25.67
2017-12-01T14:24:33.870Z,25.85
2017-12-01T14:27:02.254Z,24.83
2017-12-01T14:29:30.572Z,23.67
2017-12-01T14:31:58.950Z,25.75
2017-12-01T14:34:27.274Z,23.25
2017-12-01T14:36:55.599Z,25.98
2017-12-01T14:39:23.972Z,24.60
2017-12-01T14:41:52.311Z,24.55
2017-12-01T14:44:20.628Z,23.20
2017-12-01T14:46:49.213Z,23.87
2017-12-01T14:49:17.557Z,23.35
2017-12-01T14:51:45.899Z,23.87
2017-12-01T14:54:15.025Z,22.17
2017-12-01T14:56:43.413Z,22.73
2017-12-01T14:59:11.791Z,21.23
2017-12-01T15:01:40.172Z,23.58
2017-12-01T15:04:08.509Z,24.10
2017-12-01T15:06:37.687Z,24.00
2017-12-01T15:09:06.225Z,23.38
2017-12-01T15:11:34.608Z,23.80
2017-12-01T15:14:02.952Z,21.55
2017-12-01T15:16:31.356Z,21.52
2017-12-01T15:18:59.700Z,22.62
2017-12-01T15:21:28.008Z,20.50
2017-12-01T15:23:56.432Z,22.62
2017-12-01T15:26:24.729Z,21.75
2017-12-01T15:28:53.045Z,23.60
2017-12-01T15:31:21.747Z,24.00
2017-12-01T15:33:50.112Z,23.90
2017-12-01T15:36:18.428Z,24.55
2017-12-01T15:38:46.771Z,24.75
2017-12-01T15:41:15.117Z,24.95
2017-12-01T15:43:44.242Z,22.95
2017-12-01T15:46:13.405Z,23.38
2017-12-01T15:48:41.756Z,22.55
2017-12-01T15:51:10.089Z,21.40
2017-12-01T15:53:38.812Z,21.20
2017-12-01T15:56:07.156Z,21.62
2017-12-01T15:58:36.263Z,22.48
2017-12-01T16:01:04.793Z,22.50
2017-12-01T16:03:33.173Z,18.87
2017-12-01T16:06:01.496Z,19.77
2017-12-01T16:08:29.866Z,18.45
2017-12-01T16:10:58.967Z,20.62
2017-12-01T16:13:28.068Z,19.77
2017-12-01T16:15:56.813Z,21.12
2017-12-01T16:18:25.167Z,20.80
2017-12-01T16:20:53.512Z,21.10
2017-12-01T16:23:22.628Z,20.17
2017-12-01T16:25:50.943Z,18.83
2017-12-01T16:28:19.349Z,20.73
2017-12-01T16:30:48.454Z,20.20
2017-12-01T16:33:17.590Z,21.08
2017-12-01T16:35:45.898Z,24.05
2017-12-01T16:38:14.632Z,24.02
2017-12-01T16:40:42.984Z,20.92
2017-12-01T16:43:12.087Z,21.05
2017-12-01T16:45:41.232Z,21.27
2017-12-01T16:48:09.583Z,19.83
2017-12-01T16:50:37.947Z,20.10
2017-12-01T16:53:07.056Z,20.00
2017-12-01T16:55:35.349Z,18.20
2017-12-01T16:58:03.655Z,19.33
2017-12-01T17:00:32.076Z,19.08
2017-12-01T17:03:01.209Z,24.55
2017-12-01T17:05:29.546Z,21.00
2017-12-01T17:07:58.691Z,21.50
2017-12-01T17:10:27.103Z,23.77
2017-12-01T17:12:55.444Z,21.77
2017-12-01T17:15:23.843Z,21.10
2017-12-01T17:17:52.197Z,21.08
2017-12-01T17:20:20.613Z,21.27
2017-12-01T17:22:49.355Z,20.52
2017-12-01T17:25:17.707Z,20.50
2017-12-01T17:27:46.796Z,19.02
2017-12-01T17:30:15.137Z,23.85
2017-12-01T17:32:43.503Z,22.10
2017-12-01T17:35:12.661Z,22.25
2017-12-01T17:37:41.867Z,21.50
2017-12-01T17:40:10.971Z,21.15
2017-12-01T17:42:39.342Z,19.95
2017-12-01T17:45:08.521Z,18.15
2017-12-01T17:47:36.837Z,16.50
2017-12-01T17:50:05.238Z,18.40
2017-12-01T17:52:33.662Z,18.60
2017-12-01T17:55:02.778Z,18.75
2017-12-01T17:57:31.876Z,16.80
2017-12-01T18:00:00.224Z,17.25
2017-12-01T18:02:28.602Z,17.27
2017-12-01T18:04:57.734Z,17.80
2017-12-01T18:07:26.534Z,18.33
2017-12-01T18:09:54.868Z,18.05
2017-12-01T18:12:23.211Z,18.35
2017-12-01T18:14:51.625Z,18.17
2017-12-01T18:17:19.950Z,17.25
2017-12-01T18:19:48.296Z,18.12
2017-12-01T18:22:17.414Z,16.10
2017-12-01T18:24:45.738Z,16.58
2017-12-01T18:27:14.070Z,17.48
2017-12-01T18:29:42.578Z,19.85
2017-12-01T18:32:10.931Z,17.87
2017-12-01T18:34:39.269Z,18.02
2017-12-01T18:37:07.889Z,18.77
2017-12-01T18:39:36.297Z,19.80
2017-12-01T18:42:04.697Z,17.23
2017-12-01T18:44:33.112Z,19.87
2017-12-01T18:47:01.436Z,19.73
2017-12-01T18:49:29.914Z,18.92
2017-12-01T18:51:58.384Z,19.37
2017-12-01T18:54:26.795Z,17.75
2017-12-01T18:56:55.119Z,18.02
2017-12-01T18:59:24.244Z,17.42
2017-12-01T19:01:52.593Z,19.05
2017-12-01T19:04:21.734Z,19.65
2017-12-01T19:06:50.099Z,23.33
2017-12-01T19:09:18.456Z,21.33
2017-12-01T19:11:47.570Z,19.75
2017-12-01T19:14:16.333Z,20.62
2017-12-01T19:16:45.428Z,20.48
2017-12-01T19:19:13.868Z,20.90
2017-12-01T19:21:42.254Z,24.50
2017-12-01T19:24:10.582Z,23.45
2017-12-01T19:26:39.683Z,23.87
2017-12-01T19:29:08.781Z,22.70
2017-12-01T19:31:37.111Z,22.02
2017-12-01T19:34:05.476Z,22.90
2017-12-01T19:36:33.913Z,22.87
2017-12-01T19:39:02.231Z,23.30
2017-12-01T19:41:30.607Z,24.05
2017-12-01T19:43:59.047Z,22.05
2017-12-01T19:48:54.655Z,26.65
2017-12-01T19:51:23.003Z,25.70
2017-12-01T19:53:51.341Z,26.87
2017-12-01T19:56:19.748Z,27.00
2017-12-01T19:58:48.422Z,27.25
2017-12-01T20:01:16.789Z,25.73
2017-12-01T20:03:45.155Z,27.55
2017-12-01T20:06:14.293Z,26.70
2017-12-01T20:08:42.604Z,25.62
2017-12-01T20:11:10.923Z,27.77
2017-12-01T20:13:39.293Z,26.17
2017-12-01T20:16:23.269Z,26.70
2017-12-01T20:18:51.700Z,26.00
2017-12-01T20:21:20.787Z,25.67
2017-12-01T20:23:49.120Z,25.12
2017-12-01T20:26:17.509Z,25.95
2017-12-01T20:28:45.854Z,23.38
2017-12-01T20:31:14.183Z,23.52
2017-12-01T20:33:42.558Z,21.25
2017-12-01T20:36:10.908Z,24.55
2017-12-01T20:38:39.238Z,26.62
2017-12-01T20:41:07.769Z,26.27
2017-12-01T20:43:36.075Z,27.58
2017-12-01T20:46:04.369Z,26.02
2017-12-01T20:48:32.731Z,25.67
2017-12-01T20:51:01.148Z,25.45
2017-12-01T20:53:30.217Z,25.10
2017-12-01T20:55:58.554Z,24.70
2017-12-01T20:58:26.881Z,26.90
2017-12-01T21:00:55.239Z,27.67
2017-12-01T21:03:23.823Z,27.50
2017-12-01T21:05:52.508Z,26.70
2017-12-01T21:08:20.876Z,30.27
2017-12-01T21:10:49.232Z,30.90
2017-12-01T21:13:17.552Z,36.97
2017-12-01T21:15:45.907Z,28.85
2017-12-01T21:18:14.314Z,26.10
2017-12-01T21:20:42.606Z,26.65
2017-12-01T21:23:10.925Z,23.52
2017-12-01T21:25:39.344Z,25.33
2017-12-01T21:28:07.648Z,23.80
2017-12-01T21:30:35.991Z,21.90
2017-12-01T21:33:04.401Z,20.50
2017-12-01T21:35:32.705Z,22.37
2017-12-01T21:38:01.058Z,22.27
2017-12-01T21:40:29.408Z,22.58
2017-12-01T21:42:57.748Z,23.50
2017-12-01T21:45:26.855Z,23.27
2017-12-01T21:47:55.287Z,23.05
2017-12-01T21:50:23.616Z,22.65
2017-12-01T21:52:51.972Z,23.12
2017-12-01T21:55:21.163Z,24.17
2017-12-01T21:57:49.476Z,23.58
2017-12-01T22:00:17.837Z,24.40
2017-12-01T22:02:46.214Z,24.67
2017-12-01T22:05:14.545Z,24.67
2017-12-01T22:07:42.899Z,23.45
2017-12-01T22:10:11.523Z,23.20
2017-12-01T22:12:39.817Z,22.42
2017-12-01T22:15:08.941Z,22.33
2017-12-01T22:17:37.340Z,21.42
2017-12-01T22:20:05.650Z,21.67
2017-12-01T22:22:33.962Z,21.37
2017-12-01T22:25:03.113Z,19.95
2017-12-01T22:27:31.458Z,20.23
2017-12-01T22:29:59.810Z,19.90
2017-12-01T22:32:29.025Z,18.30
2017-12-01T22:34:57.345Z,18.42
2017-12-01T22:37:25.701Z,19.62
2017-12-01T22:39:54.024Z,21.37
2017-12-01T22:42:22.342Z,20.67
2017-12-01T22:44:50.641Z,20.20
2017-12-01T22:47:18.992Z,20.25
2017-12-01T22:49:47.358Z,20.30
2017-12-01T22:54:49.198Z,19.87
2017-12-01T22:57:17.487Z,22.77
2017-12-01T22:59:45.834Z,23.60
2017-12-01T23:02:14.209Z,21.95
2017-12-01T23:04:42.517Z,21.85
2017-12-01T23:07:10.871Z,20.12
2017-12-01T23:09:39.220Z,22.33
2017-12-01T23:12:07.558Z,22.17
2017-12-01T23:14:35.868Z,22.80
2017-12-01T23:17:04.451Z,22.20
2017-12-01T23:19:33.562Z,22.85
2017-12-01T23:22:01.896Z,19.33
2017-12-01T23:24:30.240Z,22.02
2017-12-01T23:26:58.588Z,19.87
2017-12-01T23:29:27.681Z,19.95
2017-12-01T23:31:56.801Z,21.17
2017-12-01T23:36:58.772Z,20.90
2017-12-01T23:39:27.194Z,19.20
2017-12-01T23:41:55.504Z,20.30
2017-12-01T23:44:23.864Z,20.65
2017-12-01T23:46:52.162Z,20.17
2017-12-01T23:49:21.263Z,20.62
2017-12-01T23:51:50.417Z,19.52
2017-12-01T23:54:19.591Z,19.77
2017-12-01T23:56:47.969Z,19.23
2017-12-01T23:59:16.360Z,22.95
